createdAt,value
2018-06-10T00:01:31.134Z,18.03
2018-06-10T00:04:00.573Z,13.00
2018-06-10T00:06:29.937Z,14.13
2018-06-10T00:08:59.225Z,19.33
2018-06-10T00:11:28.475Z,34.50
2018-06-10T00:13:57.730Z,20.10
2018-06-10T00:16:27.077Z,17.97
2018-06-10T00:18:56.338Z,20.77
2018-06-10T00:21:25.652Z,18.10
2018-06-10T00:23:55.093Z,18.00
2018-06-10T00:26:24.377Z,16.53
2018-06-10T00:28:59.454Z,20.33
2018-06-10T00:31:28.644Z,21.97
2018-06-10T00:33:57.905Z,23.90
2018-06-10T00:36:26.939Z,37.60
2018-06-10T00:38:55.804Z,32.80
2018-06-10T00:41:24.965Z,33.97
2018-06-10T00:43:54.273Z,32.90
2018-06-10T00:46:23.663Z,28.90
2018-06-10T00:48:52.988Z,31.53
2018-06-10T00:51:22.285Z,36.27
2018-06-10T00:53:51.541Z,40.60
2018-06-10T00:56:32.171Z,40.13
2018-06-10T00:59:01.108Z,36.70
2018-06-10T01:01:30.233Z,34.53
2018-06-10T01:03:59.741Z,39.07
2018-06-10T01:06:29.007Z,45.60
2018-06-10T01:08:58.326Z,42.73
2018-06-10T01:11:27.599Z,41.80
2018-06-10T01:13:56.813Z,38.77
2018-06-10T01:16:26.045Z,36.80
2018-06-10T01:18:55.369Z,39.53
2018-06-10T01:21:24.661Z,36.83
2018-06-10T01:23:53.875Z,36.60
2018-06-10T01:26:28.472Z,41.00
2018-06-10T01:28:57.684Z,39.47
2018-06-10T01:31:26.947Z,38.27
2018-06-10T01:33:56.277Z,39.50
2018-06-10T01:36:25.888Z,45.60
2018-06-10T01:38:54.845Z,43.90
2018-06-10T01:41:24.025Z,41.50
2018-06-10T01:43:53.384Z,43.50
2018-06-10T01:46:22.368Z,38.33
2018-06-10T01:48:51.653Z,43.40
2018-06-10T01:51:20.961Z,38.03
2018-06-10T01:53:50.229Z,40.90
2018-06-10T01:56:19.497Z,38.40
2018-06-10T01:58:48.584Z,53.97
2018-06-10T02:01:17.725Z,50.97
2018-06-10T02:03:46.984Z,65.07
2018-06-10T02:06:16.321Z,60.03
2018-06-10T02:08:45.585Z,67.23
2018-06-10T02:11:14.853Z,71.30
2018-06-10T02:13:44.164Z,71.30
2018-06-10T02:16:13.427Z,67.30
2018-06-10T02:18:42.677Z,74.27
2018-06-10T02:21:12.025Z,74.00
2018-06-10T02:23:41.281Z,79.13
2018-06-10T02:26:10.552Z,69.73
2018-06-10T02:28:39.872Z,71.57
2018-06-10T02:31:09.099Z,51.60
2018-06-10T02:33:38.385Z,60.50
2018-06-10T02:36:07.397Z,62.47
2018-06-10T02:38:36.677Z,68.37
2018-06-10T02:41:06.340Z,58.97
2018-06-10T02:43:35.673Z,54.33
2018-06-10T02:46:05.043Z,54.70
2018-06-10T02:48:34.297Z,48.73
2018-06-10T02:51:03.709Z,42.60
2018-06-10T02:53:32.958Z,33.50
2018-06-10T02:56:02.244Z,41.03
2018-06-10T02:58:31.644Z,40.83
2018-06-10T03:01:01.160Z,51.50
2018-06-10T03:03:30.512Z,43.47
2018-06-10T03:05:59.568Z,47.77
2018-06-10T03:08:28.786Z,47.30
2018-06-10T03:10:58.052Z,44.90
2018-06-10T03:13:27.371Z,43.70
2018-06-10T03:15:56.703Z,40.53
2018-06-10T03:18:25.956Z,41.10
2018-06-10T03:20:55.254Z,34.53
2018-06-10T03:23:24.760Z,33.20
2018-06-10T03:25:54.066Z,40.77
2018-06-10T03:28:23.372Z,43.33
2018-06-10T03:30:52.685Z,41.73
2018-06-10T03:33:21.965Z,42.80
2018-06-10T03:35:51.208Z,40.63
2018-06-10T03:38:20.482Z,44.87
2018-06-10T03:40:49.717Z,43.03
2018-06-10T03:43:19.027Z,35.67
2018-06-10T03:45:48.396Z,36.90
2018-06-10T03:48:17.624Z,35.83
2018-06-10T03:50:46.896Z,37.87
2018-06-10T03:53:16.120Z,32.07
2018-06-10T03:55:45.340Z,36.70
2018-06-10T03:58:14.632Z,33.57
2018-06-10T04:00:43.871Z,33.20
2018-06-10T04:03:13.137Z,34.43
2018-06-10T04:05:42.420Z,34.00
2018-06-10T04:08:11.661Z,32.80
2018-06-10T04:10:41.020Z,36.80
2018-06-10T04:13:10.280Z,42.97
2018-06-10T04:15:39.541Z,40.60
2018-06-10T04:18:08.864Z,46.00
2018-06-10T04:20:38.188Z,47.80
2018-06-10T04:23:07.499Z,44.97
2018-06-10T04:25:36.945Z,46.23
2018-06-10T04:28:06.220Z,51.50
2018-06-10T04:30:35.616Z,55.10
2018-06-10T04:33:04.885Z,51.17
2018-06-10T04:35:34.196Z,76.07
2018-06-10T04:38:03.517Z,56.70
2018-06-10T04:40:32.809Z,59.07
2018-06-10T04:43:02.082Z,56.87
2018-06-10T04:45:31.463Z,57.63
2018-06-10T04:48:00.796Z,64.40
2018-06-10T04:50:30.085Z,62.73
2018-06-10T04:52:59.479Z,57.40
2018-06-10T04:55:28.719Z,64.40
2018-06-10T04:57:57.986Z,67.17
2018-06-10T05:00:27.311Z,73.80
2018-06-10T05:02:56.699Z,56.30
2018-06-10T05:05:25.970Z,71.70
2018-06-10T05:07:55.341Z,62.80
2018-06-10T05:10:24.703Z,78.80
2018-06-10T05:12:54.024Z,74.77
2018-06-10T05:15:23.323Z,68.17
2018-06-10T05:17:52.590Z,75.07
2018-06-10T05:20:21.852Z,77.10
2018-06-10T05:22:51.193Z,72.43
2018-06-10T05:25:20.477Z,66.13
2018-06-10T05:27:49.732Z,76.00
2018-06-10T05:30:19.089Z,71.67
2018-06-10T05:32:48.346Z,72.20
2018-06-10T05:35:17.612Z,68.07
2018-06-10T05:37:46.936Z,66.13
2018-06-10T05:40:16.221Z,51.63
2018-06-10T05:42:45.498Z,49.47
2018-06-10T05:45:14.892Z,56.13
2018-06-10T05:47:44.179Z,52.40
2018-06-10T05:50:13.453Z,49.80
2018-06-10T05:52:42.825Z,41.57
2018-06-10T05:55:12.105Z,37.53
2018-06-10T05:57:41.386Z,39.43
2018-06-10T06:00:10.732Z,32.73
2018-06-10T06:02:39.998Z,30.50
2018-06-10T06:05:09.253Z,31.73
2018-06-10T06:07:38.601Z,32.67
2018-06-10T06:10:07.893Z,37.67
2018-06-10T06:12:37.160Z,44.97
2018-06-10T06:15:06.533Z,37.13
2018-06-10T06:17:35.865Z,37.60
2018-06-10T06:20:05.253Z,30.90
2018-06-10T06:22:34.596Z,26.43
2018-06-10T06:25:03.888Z,23.67
2018-06-10T06:27:33.137Z,24.40
2018-06-10T06:30:02.470Z,26.63
2018-06-10T06:32:31.717Z,22.93
2018-06-10T06:35:00.929Z,24.00
2018-06-10T06:37:30.221Z,21.80
2018-06-10T06:39:59.549Z,19.33
2018-06-10T06:42:28.860Z,19.87
2018-06-10T06:44:58.113Z,20.67
2018-06-10T06:47:27.368Z,19.00
2018-06-10T06:49:56.611Z,15.73
2018-06-10T06:52:25.985Z,14.60
2018-06-10T06:54:55.252Z,15.07
2018-06-10T06:57:24.531Z,13.70
2018-06-10T06:59:53.817Z,13.07
2018-06-10T07:02:23.059Z,14.20
2018-06-10T07:04:52.293Z,15.03
2018-06-10T07:07:29.067Z,12.10
2018-06-10T07:09:58.376Z,12.60
2018-06-10T07:12:27.663Z,11.40
2018-06-10T07:14:57.012Z,11.13
2018-06-10T07:17:26.260Z,11.17
2018-06-10T07:19:55.546Z,11.33
2018-06-10T07:22:24.988Z,8.77
2018-06-10T07:24:54.233Z,9.37
2018-06-10T07:27:23.489Z,10.80
2018-06-10T07:29:52.886Z,10.83
2018-06-10T07:32:22.153Z,10.33
2018-06-10T07:34:52.915Z,8.40
2018-06-10T07:37:22.404Z,10.50
2018-06-10T07:39:51.696Z,9.03
2018-06-10T07:42:21.001Z,8.80
2018-06-10T07:44:50.306Z,13.47
2018-06-10T07:47:19.583Z,8.83
2018-06-10T07:49:49.089Z,9.97
2018-06-10T07:52:18.384Z,8.47
2018-06-10T07:54:47.689Z,9.50
2018-06-10T07:57:17.072Z,10.17
2018-06-10T07:59:46.355Z,9.80
2018-06-10T08:02:15.636Z,8.27
2018-06-10T08:04:45.094Z,8.10
2018-06-10T08:07:14.945Z,7.70
2018-06-10T08:09:44.234Z,7.60
2018-06-10T08:12:13.631Z,10.47
2018-06-10T08:14:42.941Z,8.60
2018-06-10T08:17:12.279Z,8.87
2018-06-10T08:19:42.896Z,10.17
2018-06-10T08:22:12.737Z,11.17
2018-06-10T08:24:42.196Z,9.97
2018-06-10T08:27:11.576Z,9.70
2018-06-10T08:29:41.135Z,8.27
2018-06-10T08:32:10.593Z,8.37
2018-06-10T08:34:39.917Z,8.50
2018-06-10T08:37:09.264Z,9.33
2018-06-10T08:39:38.838Z,9.47
2018-06-10T08:42:08.250Z,8.97
2018-06-10T08:44:37.580Z,9.60
2018-06-10T08:47:06.974Z,9.60
2018-06-10T08:49:36.273Z,9.77
2018-06-10T08:52:05.574Z,9.53
2018-06-10T08:54:34.893Z,9.00
2018-06-10T08:57:04.234Z,10.17
2018-06-10T08:59:33.585Z,7.70
2018-06-10T09:02:02.886Z,8.57
2018-06-10T09:04:32.235Z,8.90
2018-06-10T09:07:01.656Z,8.33
2018-06-10T09:09:31.174Z,7.50
2018-06-10T09:12:00.527Z,8.13
2018-06-10T09:14:29.804Z,7.90
2018-06-10T09:16:59.082Z,7.63
2018-06-10T09:19:28.421Z,9.37
2018-06-10T09:21:57.652Z,8.30
2018-06-10T09:24:26.932Z,8.70
2018-06-10T09:26:56.440Z,12.37
2018-06-10T09:29:25.673Z,9.10
2018-06-10T09:31:55.113Z,9.03
2018-06-10T09:34:24.372Z,7.93
2018-06-10T09:36:53.740Z,10.67
2018-06-10T09:39:23.139Z,6.53
2018-06-10T09:41:52.448Z,7.03
2018-06-10T09:44:22.656Z,6.00
2018-06-10T09:46:52.030Z,8.67
2018-06-10T09:49:21.328Z,7.73
2018-06-10T09:51:50.310Z,7.73
2018-06-10T09:54:19.547Z,7.60
2018-06-10T09:56:48.860Z,7.03
2018-06-10T09:59:18.198Z,6.43
2018-06-10T10:01:47.620Z,5.30
2018-06-10T10:04:16.938Z,5.23
2018-06-10T10:06:45.948Z,5.30
2018-06-10T10:09:14.865Z,5.30
2018-06-10T10:11:44.084Z,6.37
2018-06-10T10:14:13.425Z,5.07
2018-06-10T10:16:45.781Z,5.10
2018-06-10T10:19:15.124Z,4.60
2018-06-10T10:21:44.453Z,4.40
2018-06-10T10:24:13.820Z,3.83
2018-06-10T10:26:43.240Z,4.40
2018-06-10T10:29:12.620Z,4.50
2018-06-10T10:31:42.117Z,5.17
2018-06-10T10:34:11.401Z,5.00
2018-06-10T10:36:40.749Z,5.90
2018-06-10T10:39:10.098Z,4.80
2018-06-10T10:41:39.156Z,7.40
2018-06-10T10:44:08.417Z,10.10
2018-06-10T10:46:37.731Z,4.67
2018-06-10T10:49:07.006Z,6.33
2018-06-10T10:51:36.476Z,4.63
2018-06-10T10:54:05.866Z,4.83
2018-06-10T10:56:35.093Z,4.80
2018-06-10T10:59:04.322Z,4.43
2018-06-10T11:01:33.592Z,4.40
2018-06-10T11:04:02.901Z,4.90
2018-06-10T11:06:32.252Z,4.40
2018-06-10T11:09:01.269Z,4.07
2018-06-10T11:11:30.427Z,5.60
2018-06-10T11:13:59.668Z,5.07
2018-06-10T11:16:28.983Z,5.67
2018-06-10T11:18:58.237Z,4.47
2018-06-10T11:21:27.517Z,4.50
2018-06-10T11:23:56.876Z,4.87
2018-06-10T11:26:26.330Z,4.37
2018-06-10T11:28:55.591Z,5.07
2018-06-10T11:31:25.082Z,6.07
2018-06-10T11:33:54.385Z,4.70
2018-06-10T11:36:24.485Z,5.23
2018-06-10T11:38:53.908Z,8.13
2018-06-10T11:41:23.232Z,6.53
2018-06-10T11:43:52.610Z,5.73
2018-06-10T11:46:21.926Z,11.47
2018-06-10T11:48:51.482Z,5.27
2018-06-10T11:51:20.912Z,5.83
2018-06-10T11:53:50.395Z,5.47
2018-06-10T11:56:20.202Z,8.63
2018-06-10T11:58:49.581Z,6.40
2018-06-10T12:01:19.005Z,6.07
2018-06-10T12:03:48.458Z,5.40
2018-06-10T12:06:18.570Z,10.30
2018-06-10T12:08:48.111Z,5.33
2018-06-10T12:11:17.389Z,7.20
2018-06-10T12:13:46.932Z,4.90
2018-06-10T12:16:16.561Z,5.53
2018-06-10T12:18:45.993Z,6.03
2018-06-10T12:21:15.316Z,7.40
2018-06-10T12:23:44.725Z,8.40
2018-06-10T12:26:14.227Z,10.47
2018-06-10T12:28:43.745Z,6.47
2018-06-10T12:31:13.174Z,6.73
2018-06-10T12:33:42.503Z,6.10
2018-06-10T12:36:11.861Z,7.23
2018-06-10T12:38:41.169Z,5.17
2018-06-10T12:41:10.686Z,10.50
2018-06-10T12:43:40.048Z,5.97
2018-06-10T12:46:09.518Z,6.10
2018-06-10T12:48:38.984Z,13.20
2018-06-10T12:51:08.761Z,17.60
2018-06-10T12:53:38.550Z,23.73
2018-06-10T12:56:08.112Z,25.10
2018-06-10T12:58:37.618Z,28.77
2018-06-10T13:01:07.096Z,34.60
2018-06-10T13:03:36.539Z,41.87
2018-06-10T13:06:06.237Z,33.83
2018-06-10T13:08:35.764Z,27.93
2018-06-10T13:11:05.198Z,21.97
2018-06-10T13:13:34.829Z,22.80
2018-06-10T13:16:04.816Z,24.40
2018-06-10T13:18:34.434Z,23.03
2018-06-10T13:21:03.920Z,25.33
2018-06-10T13:23:33.404Z,29.23
2018-06-10T13:26:02.865Z,29.33
2018-06-10T13:28:32.369Z,26.73
2018-06-10T13:31:01.949Z,28.63
2018-06-10T13:33:31.463Z,25.33
2018-06-10T13:36:01.006Z,26.27
2018-06-10T13:38:30.622Z,30.10
2018-06-10T13:41:00.196Z,29.87
2018-06-10T13:43:29.739Z,30.30
2018-06-10T13:45:59.470Z,31.40
2018-06-10T13:48:28.980Z,28.50
2018-06-10T13:50:58.770Z,33.03
2018-06-10T13:53:28.365Z,22.70
2018-06-10T13:55:57.857Z,24.07
2018-06-10T13:58:27.712Z,20.47
2018-06-10T14:00:58.298Z,17.50
2018-06-10T14:03:27.448Z,18.10
2018-06-10T14:05:56.946Z,16.93
2018-06-10T14:08:26.323Z,19.27
2018-06-10T14:10:55.912Z,23.90
2018-06-10T14:13:25.454Z,26.27
2018-06-10T14:15:54.956Z,28.00
2018-06-10T14:18:24.671Z,29.87
2018-06-10T14:20:54.242Z,29.67
2018-06-10T14:23:23.860Z,29.17
2018-06-10T14:25:53.392Z,32.10
2018-06-10T14:28:22.943Z,26.80
2018-06-10T14:30:52.451Z,25.17
2018-06-10T14:33:21.929Z,24.73
2018-06-10T14:35:51.330Z,21.70
2018-06-10T14:38:20.740Z,20.73
2018-06-10T14:40:50.362Z,20.73
2018-06-10T14:43:19.903Z,22.60
2018-06-10T14:45:49.437Z,23.93
2018-06-10T14:48:19.043Z,23.43
2018-06-10T14:50:48.305Z,24.37
2018-06-10T14:53:17.614Z,23.67
2018-06-10T14:55:46.944Z,25.70
2018-06-10T14:58:16.196Z,23.10
2018-06-10T15:00:45.449Z,23.27
2018-06-10T15:03:14.700Z,24.37
2018-06-10T15:05:44.052Z,21.20
2018-06-10T15:08:13.405Z,23.60
2018-06-10T15:10:42.633Z,22.20
2018-06-10T15:13:11.917Z,20.87
2018-06-10T15:15:41.316Z,24.33
2018-06-10T15:18:10.761Z,25.40
2018-06-10T15:20:40.220Z,24.53
2018-06-10T15:23:09.496Z,23.00
2018-06-10T15:25:38.973Z,27.47
2018-06-10T15:28:08.437Z,24.00
2018-06-10T15:30:37.770Z,23.00
2018-06-10T15:33:07.205Z,29.20
2018-06-10T15:35:36.797Z,22.90
2018-06-10T15:38:06.169Z,23.07
2018-06-10T15:40:35.690Z,22.40
2018-06-10T15:43:05.105Z,19.83
2018-06-10T15:45:34.739Z,21.43
2018-06-10T15:48:04.396Z,26.03
2018-06-10T15:50:34.191Z,20.37
2018-06-10T15:53:03.639Z,24.57
2018-06-10T15:55:33.225Z,24.00
2018-06-10T15:58:02.837Z,26.30
2018-06-10T16:00:32.236Z,24.40
2018-06-10T16:03:01.590Z,23.77
2018-06-10T16:05:31.154Z,22.80
2018-06-10T16:08:00.617Z,26.20
2018-06-10T16:10:30.106Z,25.13
2018-06-10T16:12:59.495Z,28.20
2018-06-10T16:15:28.999Z,25.80
2018-06-10T16:17:58.435Z,25.60
2018-06-10T16:20:27.907Z,24.90
2018-06-10T16:22:57.328Z,25.03
2018-06-10T16:25:26.875Z,21.27
2018-06-10T16:27:56.485Z,20.73
2018-06-10T16:30:25.958Z,22.53
2018-06-10T16:32:55.623Z,25.20
2018-06-10T16:35:25.310Z,22.80
2018-06-10T16:37:55.027Z,23.73
2018-06-10T16:40:24.572Z,26.87
2018-06-10T16:42:54.236Z,22.33
2018-06-10T16:45:23.716Z,24.53
2018-06-10T16:47:53.236Z,24.60
2018-06-10T16:50:22.685Z,23.83
2018-06-10T16:52:52.113Z,22.63
2018-06-10T16:55:21.867Z,20.53
2018-06-10T16:57:51.314Z,22.83
2018-06-10T17:00:20.958Z,22.93
2018-06-10T17:02:50.410Z,23.97
2018-06-10T17:05:19.831Z,23.83
2018-06-10T17:07:49.128Z,20.23
2018-06-10T17:10:18.526Z,27.57
2018-06-10T17:12:48.085Z,23.83
2018-06-10T17:15:17.431Z,23.03
2018-06-10T17:17:46.901Z,22.17
2018-06-10T17:20:16.765Z,24.70
2018-06-10T17:22:46.074Z,25.00
2018-06-10T17:25:15.533Z,33.67
2018-06-10T17:27:44.949Z,31.00
2018-06-10T17:30:15.426Z,30.37
2018-06-10T17:32:44.845Z,34.60
2018-06-10T17:35:14.410Z,36.43
2018-06-10T17:37:43.922Z,35.67
2018-06-10T17:40:13.362Z,34.37
2018-06-10T17:42:42.945Z,36.33
2018-06-10T17:45:12.402Z,33.53
2018-06-10T17:47:41.897Z,39.63
2018-06-10T17:50:11.232Z,37.77
2018-06-10T17:52:40.688Z,31.30
2018-06-10T17:55:10.313Z,35.67
2018-06-10T17:57:39.937Z,38.30
2018-06-10T18:00:09.304Z,33.67
2018-06-10T18:02:39.141Z,32.93
2018-06-10T18:05:08.412Z,38.23
2018-06-10T18:07:37.896Z,34.83
2018-06-10T18:10:07.401Z,37.73
2018-06-10T18:12:37.406Z,38.37
2018-06-10T18:15:07.623Z,39.37
2018-06-10T18:17:37.832Z,35.23
2018-06-10T18:20:08.175Z,37.50
2018-06-10T18:22:38.024Z,35.23
2018-06-10T18:25:07.649Z,33.87
2018-06-10T18:27:37.172Z,30.87
2018-06-10T18:30:06.761Z,37.30
2018-06-10T18:32:36.140Z,29.37
2018-06-10T18:35:05.916Z,30.73
2018-06-10T18:37:35.276Z,28.10
2018-06-10T18:40:04.684Z,33.03
2018-06-10T18:42:34.101Z,30.00
2018-06-10T18:45:03.650Z,27.63
2018-06-10T18:47:33.110Z,30.83
2018-06-10T18:50:02.409Z,27.97
2018-06-10T18:52:31.755Z,31.37
2018-06-10T18:55:01.463Z,33.10
2018-06-10T18:57:31.095Z,42.80
2018-06-10T19:00:00.607Z,28.63
2018-06-10T19:02:30.691Z,39.97
2018-06-10T19:05:00.022Z,32.17
2018-06-10T19:07:29.432Z,37.90
2018-06-10T19:09:58.662Z,41.13
2018-06-10T19:12:27.880Z,34.57
2018-06-10T19:14:57.197Z,37.80
2018-06-10T19:17:26.697Z,37.10
2018-06-10T19:19:56.104Z,39.07
2018-06-10T19:22:25.394Z,43.83
2018-06-10T19:24:54.809Z,41.30
2018-06-10T19:27:24.233Z,41.33
2018-06-10T19:29:53.633Z,39.60
2018-06-10T19:32:23.137Z,42.47
2018-06-10T19:34:52.518Z,56.67
2018-06-10T19:37:22.039Z,43.27
2018-06-10T19:39:51.413Z,42.97
2018-06-10T19:42:20.812Z,46.00
2018-06-10T19:44:50.237Z,42.17
2018-06-10T19:47:19.713Z,46.17
2018-06-10T19:49:49.023Z,42.43
2018-06-10T19:52:18.559Z,46.10
2018-06-10T19:54:47.909Z,49.47
2018-06-10T19:57:17.349Z,48.70
2018-06-10T19:59:46.736Z,49.93
2018-06-10T20:02:16.045Z,48.13
2018-06-10T20:04:45.681Z,47.20
2018-06-10T20:07:15.137Z,44.40
2018-06-10T20:09:44.496Z,46.97
2018-06-10T20:12:13.950Z,49.67
2018-06-10T20:14:43.348Z,39.93
2018-06-10T20:17:12.902Z,45.87
2018-06-10T20:19:42.446Z,57.43
2018-06-10T20:22:11.884Z,52.07
2018-06-10T20:24:41.467Z,58.97
2018-06-10T20:27:10.829Z,57.10
2018-06-10T20:29:40.292Z,66.10
2018-06-10T20:32:09.597Z,57.63
2018-06-10T20:34:38.993Z,61.33
2018-06-10T20:37:08.336Z,51.73
2018-06-10T20:39:37.777Z,54.50
2018-06-10T20:42:07.276Z,53.13
2018-06-10T20:44:36.520Z,58.73
2018-06-10T20:47:05.762Z,52.43
2018-06-10T20:49:35.040Z,47.97
2018-06-10T20:52:04.323Z,52.27
2018-06-10T20:54:34.115Z,52.53
2018-06-10T20:57:03.344Z,52.60
2018-06-10T20:59:32.704Z,58.10
2018-06-10T21:02:01.977Z,53.77
2018-06-10T21:04:31.285Z,62.80
2018-06-10T21:07:00.589Z,54.80
2018-06-10T21:09:29.873Z,72.73
2018-06-10T21:11:59.132Z,60.43
2018-06-10T21:14:28.461Z,66.40
2018-06-10T21:16:57.746Z,65.90
2018-06-10T21:19:27.025Z,59.40
2018-06-10T21:21:56.273Z,53.27
2018-06-10T21:24:25.553Z,55.97
2018-06-10T21:26:54.917Z,57.30
2018-06-10T21:29:24.303Z,59.10
2018-06-10T21:31:53.643Z,53.40
2018-06-10T21:34:22.922Z,57.80
2018-06-10T21:36:52.185Z,59.47
2018-06-10T21:39:21.467Z,59.50
2018-06-10T21:41:50.759Z,57.90
2018-06-10T21:44:20.090Z,67.83
2018-06-10T21:46:49.442Z,55.10
2018-06-10T21:49:18.700Z,60.60
2018-06-10T21:51:47.980Z,60.20
2018-06-10T21:54:17.215Z,62.07
2018-06-10T21:56:46.462Z,56.33
2018-06-10T21:59:15.768Z,55.37
2018-06-10T22:01:45.110Z,64.60
2018-06-10T22:04:14.390Z,55.23
2018-06-10T22:06:44.478Z,62.17
2018-06-10T22:09:13.760Z,63.53
2018-06-10T22:11:43.075Z,70.37
2018-06-10T22:14:12.445Z,72.93
2018-06-10T22:16:41.694Z,69.77
2018-06-10T22:19:10.945Z,74.60
2018-06-10T22:21:40.209Z,75.27
2018-06-10T22:24:09.561Z,77.90
2018-06-10T22:26:38.861Z,72.53
2018-06-10T22:29:08.160Z,72.87
2018-06-10T22:31:37.516Z,69.13
2018-06-10T22:34:06.822Z,66.33
2018-06-10T22:36:36.141Z,66.60
2018-06-10T22:39:07.702Z,77.83
2018-06-10T22:41:37.013Z,74.53
2018-06-10T22:44:06.281Z,72.77
2018-06-10T22:46:35.557Z,73.13
2018-06-10T22:49:04.968Z,80.07
2018-06-10T22:51:34.313Z,86.97
2018-06-10T22:54:14.765Z,71.67
2018-06-10T22:56:44.115Z,69.83
2018-06-10T22:59:13.533Z,62.53
2018-06-10T23:01:42.783Z,63.33
2018-06-10T23:04:12.038Z,50.43
2018-06-10T23:06:41.275Z,51.30
2018-06-10T23:09:10.641Z,58.60
2018-06-10T23:11:39.917Z,50.67
2018-06-10T23:14:09.224Z,56.00
2018-06-10T23:16:38.489Z,60.57
2018-06-10T23:19:07.805Z,54.07
2018-06-10T23:21:37.126Z,56.93
2018-06-10T23:24:06.444Z,57.83
2018-06-10T23:26:35.748Z,58.53
2018-06-10T23:29:05.022Z,56.70
2018-06-10T23:31:34.332Z,50.57
2018-06-10T23:34:03.658Z,55.40
2018-06-10T23:36:32.893Z,55.60
2018-06-10T23:39:02.233Z,66.90
2018-06-10T23:41:31.565Z,62.67
2018-06-10T23:44:00.871Z,63.63
2018-06-10T23:46:30.213Z,61.67
2018-06-10T23:48:59.529Z,60.07
2018-06-10T23:51:28.896Z,66.90
2018-06-10T23:53:58.211Z,63.40
2018-06-10T23:56:27.444Z,64.37
2018-06-10T23:58:56.890Z,60.80
